Spring River (Missouri), Waco (07186000)

StateMissouriLatestLow (267 cfs)
RiverSpring RiverRatingObservedEstimated
Updated2020-07-13 19:30 (44 minutes ago)Flood - The river is flooding. Obstacles can be treacherous or deadly. The river should be avoided at this stage for casual trips and definitely for the inexperienced. Trips should be attempted only with protective gear and equipment.Flood(none)4293
Discharge267 cfs (median: 275 cfs)High - The river is high and potentially dangerous, especially for the young and / or inexperienced. Normal stream obstacles are sometimes difficult to navigate. Extended distances can be attempted, but canoe travel may not be advisable.High(none)573
Height2.08 feetGood - Conditions are ideal for a canoe or kayak. Boats typically will drag on fewer than one-quarter of riffles, if at all, and portages are unnecessary or rare. Normal float lengths can be attempted without a problem.Good(none)523
TrendFalling (falling over 24 hours)Low - River is low but can still be floated. Some riffles are okay but most come with significant dragging and might need a portage. Float lengths should be reduced to accommodate low flow, dragging, and portages.Low(none)263
USGSExternal icon USGS Site (External icon Google Maps)Poor - River is too low to float comfortably. Most or all riffles will drag or must be portaged and some obstacles (such as slick shelf rock) cause undue problems. Avoid the river at this stage for casual paddling trips.Poor(none)49

Trending Data

Plot Image

Trips for Spring River (Missouri), Waco (07186000)

DateStartEndDistanceConditionDischargeHeightFishingDetails

A total of 0 rows are displayed.

Condition Descriptions

Fishing Conditions

Fish Species

Notes

Classic Trip List

The classic River Trips application is still available for use. It is updated with the new system using a data retrofit. It is no longer maintained. The original River Trips application is no longer updated (as of 1 Dec 2016) but can be checked for errors or for the condition of the data before it was converted to the new system.

Gauge Data Table

ObservationHeightDischargeMaximum
Discharge
Minimum
Discharge
Mean
Discharge
P05P10P20P25P50
(Median)
P75P80P90P95
2020-07-13 19:30 2.08 267 7620 (1992) 29 (1934) 639 52 66 114 131 275 589 708 1430 2370
2020-07-13 18:30 2.09 271 7620 (1992) 29 (1934) 639 52 66 114 131 275 589 708 1430 2370
2020-07-13 17:30 2.09 271 7620 (1992) 29 (1934) 639 52 66 114 131 275 589 708 1430 2370
2020-07-13 16:30 2.09 271 7620 (1992) 29 (1934) 639 52 66 114 131 275 589 708 1430 2370
2020-07-13 15:30 2.09 271 7620 (1992) 29 (1934) 639 52 66 114 131 275 589 708 1430 2370
2020-07-13 14:30 2.09 271 7620 (1992) 29 (1934) 639 52 66 114 131 275 589 708 1430 2370
2020-07-13 13:30 2.09 271 7620 (1992) 29 (1934) 639 52 66 114 131 275 589 708 1430 2370
2020-07-13 12:30 2.09 271 7620 (1992) 29 (1934) 639 52 66 114 131 275 589 708 1430 2370
2020-07-13 11:30 2.10 275 7620 (1992) 29 (1934) 639 52 66 114 131 275 589 708 1430 2370
2020-07-13 10:30 2.11 278 7620 (1992) 29 (1934) 639 52 66 114 131 275 589 708 1430 2370
2020-07-13 09:30 2.10 275 7620 (1992) 29 (1934) 639 52 66 114 131 275 589 708 1430 2370
2020-07-13 08:30 2.11 278 7620 (1992) 29 (1934) 639 52 66 114 131 275 589 708 1430 2370
2020-07-13 07:30 2.10 275 7620 (1992) 29 (1934) 639 52 66 114 131 275 589 708 1430 2370
2020-07-13 06:30 2.11 278 7620 (1992) 29 (1934) 639 52 66 114 131 275 589 708 1430 2370
2020-07-13 05:30 2.10 275 7620 (1992) 29 (1934) 639 52 66 114 131 275 589 708 1430 2370
2020-07-13 04:30 2.11 278 7620 (1992) 29 (1934) 639 52 66 114 131 275 589 708 1430 2370
2020-07-13 03:30 2.11 278 7620 (1992) 29 (1934) 639 52 66 114 131 275 589 708 1430 2370
2020-07-13 02:30 2.11 278 7620 (1992) 29 (1934) 639 52 66 114 131 275 589 708 1430 2370
2020-07-13 01:30 2.11 278 7620 (1992) 29 (1934) 639 52 66 114 131 275 589 708 1430 2370
2020-07-13 00:30 2.11 278 7620 (1992) 29 (1934) 639 52 66 114 131 275 589 708 1430 2370
2020-07-12 23:30 2.12 282 14200 (1992) 23 (1954) 825 55 70 108 126 279 666 817 1240 3720
2020-07-12 22:30 2.12 282 14200 (1992) 23 (1954) 825 55 70 108 126 279 666 817 1240 3720
2020-07-12 21:30 2.12 282 14200 (1992) 23 (1954) 825 55 70 108 126 279 666 817 1240 3720
2020-07-12 20:30 2.12 282 14200 (1992) 23 (1954) 825 55 70 108 126 279 666 817 1240 3720
2020-07-12 19:30 2.12 282 14200 (1992) 23 (1954) 825 55 70 108 126 279 666 817 1240 3720
2020-07-12 18:30 2.12 282 14200 (1992) 23 (1954) 825 55 70 108 126 279 666 817 1240 3720
2020-07-12 17:30 2.12 282 14200 (1992) 23 (1954) 825 55 70 108 126 279 666 817 1240 3720
2020-07-12 16:30 2.12 282 14200 (1992) 23 (1954) 825 55 70 108 126 279 666 817 1240 3720
2020-07-12 15:30 2.12 282 14200 (1992) 23 (1954) 825 55 70 108 126 279 666 817 1240 3720
2020-07-12 14:30 2.14 290 14200 (1992) 23 (1954) 825 55 70 108 126 279 666 817 1240 3720
2020-07-12 13:30 2.13 286 14200 (1992) 23 (1954) 825 55 70 108 126 279 666 817 1240 3720
2020-07-12 12:30 2.14 290 14200 (1992) 23 (1954) 825 55 70 108 126 279 666 817 1240 3720
2020-07-12 11:30 2.14 290 14200 (1992) 23 (1954) 825 55 70 108 126 279 666 817 1240 3720
2020-07-12 10:30 2.15 294 14200 (1992) 23 (1954) 825 55 70 108 126 279 666 817 1240 3720
2020-07-12 09:30 2.14 290 14200 (1992) 23 (1954) 825 55 70 108 126 279 666 817 1240 3720
2020-07-12 08:30 2.15 294 14200 (1992) 23 (1954) 825 55 70 108 126 279 666 817 1240 3720
2020-07-12 07:30 2.14 290 14200 (1992) 23 (1954) 825 55 70 108 126 279 666 817 1240 3720
2020-07-12 06:30 2.15 294 14200 (1992) 23 (1954) 825 55 70 108 126 279 666 817 1240 3720
2020-07-12 05:30 2.15 294 14200 (1992) 23 (1954) 825 55 70 108 126 279 666 817 1240 3720
2020-07-12 04:30 2.16 299 14200 (1992) 23 (1954) 825 55 70 108 126 279 666 817 1240 3720
2020-07-12 03:30 2.16 299 14200 (1992) 23 (1954) 825 55 70 108 126 279 666 817 1240 3720
2020-07-12 02:30 2.16 299 14200 (1992) 23 (1954) 825 55 70 108 126 279 666 817 1240 3720
2020-07-12 01:30 2.16 299 14200 (1992) 23 (1954) 825 55 70 108 126 279 666 817 1240 3720
2020-07-12 00:30 2.17 303 14200 (1992) 23 (1954) 825 55 70 108 126 279 666 817 1240 3720
2020-07-11 23:30 2.17 303 14100 (1992) 33 (1954) 874 55 69 111 131 295 636 792 2110 3470
2020-07-11 22:30 2.17 303 14100 (1992) 33 (1954) 874 55 69 111 131 295 636 792 2110 3470
2020-07-11 21:30 2.17 303 14100 (1992) 33 (1954) 874 55 69 111 131 295 636 792 2110 3470
2020-07-11 20:30 2.18 307 14100 (1992) 33 (1954) 874 55 69 111 131 295 636 792 2110 3470
2020-07-11 19:30 2.18 307 14100 (1992) 33 (1954) 874 55 69 111 131 295 636 792 2110 3470
2020-07-11 18:30 2.18 307 14100 (1992) 33 (1954) 874 55 69 111 131 295 636 792 2110 3470
2020-07-11 17:30 2.19 311 14100 (1992) 33 (1954) 874 55 69 111 131 295 636 792 2110 3470
2020-07-11 16:30 2.20 315 14100 (1992) 33 (1954) 874 55 69 111 131 295 636 792 2110 3470
2020-07-11 15:30 2.21 319 14100 (1992) 33 (1954) 874 55 69 111 131 295 636 792 2110 3470
2020-07-11 14:30 2.21 319 14100 (1992) 33 (1954) 874 55 69 111 131 295 636 792 2110 3470
2020-07-11 13:30 2.20 315 14100 (1992) 33 (1954) 874 55 69 111 131 295 636 792 2110 3470
2020-07-11 12:30 2.21 319 14100 (1992) 33 (1954) 874 55 69 111 131 295 636 792 2110 3470
2020-07-11 11:30 2.21 319 14100 (1992) 33 (1954) 874 55 69 111 131 295 636 792 2110 3470
2020-07-11 10:30 2.21 319 14100 (1992) 33 (1954) 874 55 69 111 131 295 636 792 2110 3470
2020-07-11 09:30 2.22 324 14100 (1992) 33 (1954) 874 55 69 111 131 295 636 792 2110 3470
2020-07-11 08:30 2.22 324 14100 (1992) 33 (1954) 874 55 69 111 131 295 636 792 2110 3470
2020-07-11 07:30 2.22 324 14100 (1992) 33 (1954) 874 55 69 111 131 295 636 792 2110 3470
2020-07-11 06:30 2.21 319 14100 (1992) 33 (1954) 874 55 69 111 131 295 636 792 2110 3470
2020-07-11 05:30 2.22 324 14100 (1992) 33 (1954) 874 55 69 111 131 295 636 792 2110 3470
2020-07-11 04:30 2.21 319 14100 (1992) 33 (1954) 874 55 69 111 131 295 636 792 2110 3470
2020-07-11 03:30 2.21 319 14100 (1992) 33 (1954) 874 55 69 111 131 295 636 792 2110 3470
2020-07-11 02:30 2.21 319 14100 (1992) 33 (1954) 874 55 69 111 131 295 636 792 2110 3470
2020-07-11 01:30 2.20 315 14100 (1992) 33 (1954) 874 55 69 111 131 295 636 792 2110 3470
2020-07-11 00:30 2.21 319 14100 (1992) 33 (1954) 874 55 69 111 131 295 636 792 2110 3470
2020-07-10 23:30 2.20 315 12600 (2015) 24 (1954) 758 57 81 111 139 309 664 888 1510 3670
2020-07-10 22:30 2.20 315 12600 (2015) 24 (1954) 758 57 81 111 139 309 664 888 1510 3670
2020-07-10 21:30 2.19 311 12600 (2015) 24 (1954) 758 57 81 111 139 309 664 888 1510 3670
2020-07-10 20:30 2.20 315 12600 (2015) 24 (1954) 758 57 81 111 139 309 664 888 1510 3670
2020-07-10 19:30 2.21 319 12600 (2015) 24 (1954) 758 57 81 111 139 309 664 888 1510 3670
2020-07-10 18:30 2.21 319 12600 (2015) 24 (1954) 758 57 81 111 139 309 664 888 1510 3670
2020-07-10 17:30 2.20 315 12600 (2015) 24 (1954) 758 57 81 111 139 309 664 888 1510 3670
2020-07-10 16:30 2.20 315 12600 (2015) 24 (1954) 758 57 81 111 139 309 664 888 1510 3670
2020-07-10 15:30 2.21 319 12600 (2015) 24 (1954) 758 57 81 111 139 309 664 888 1510 3670
2020-07-10 14:30 2.21 319 12600 (2015) 24 (1954) 758 57 81 111 139 309 664 888 1510 3670
2020-07-10 13:30 2.21 319 12600 (2015) 24 (1954) 758 57 81 111 139 309 664 888 1510 3670
2020-07-10 12:30 2.21 319 12600 (2015) 24 (1954) 758 57 81 111 139 309 664 888 1510 3670
2020-07-10 11:30 2.22 324 12600 (2015) 24 (1954) 758 57 81 111 139 309 664 888 1510 3670
2020-07-10 10:30 2.22 324 12600 (2015) 24 (1954) 758 57 81 111 139 309 664 888 1510 3670
2020-07-10 09:30 2.21 319 12600 (2015) 24 (1954) 758 57 81 111 139 309 664 888 1510 3670
2020-07-10 08:30 2.22 324 12600 (2015) 24 (1954) 758 57 81 111 139 309 664 888 1510 3670
2020-07-10 07:30 2.23 328 12600 (2015) 24 (1954) 758 57 81 111 139 309 664 888 1510 3670
2020-07-10 06:30 2.23 328 12600 (2015) 24 (1954) 758 57 81 111 139 309 664 888 1510 3670
2020-07-10 05:30 2.24 332 12600 (2015) 24 (1954) 758 57 81 111 139 309 664 888 1510 3670
2020-07-10 04:30 2.24 332 12600 (2015) 24 (1954) 758 57 81 111 139 309 664 888 1510 3670
2020-07-10 03:30 2.24 332 12600 (2015) 24 (1954) 758 57 81 111 139 309 664 888 1510 3670
2020-07-10 02:30 2.25 336 12600 (2015) 24 (1954) 758 57 81 111 139 309 664 888 1510 3670
2020-07-10 01:30 2.26 341 12600 (2015) 24 (1954) 758 57 81 111 139 309 664 888 1510 3670
2020-07-10 00:30 2.27 345 12600 (2015) 24 (1954) 758 57 81 111 139 309 664 888 1510 3670
2020-07-09 23:30 2.27 345 15700 (2015) 19 (1954) 911 59 85 113 141 327 715 816 1550 3220
2020-07-09 22:30 2.28 350 15700 (2015) 19 (1954) 911 59 85 113 141 327 715 816 1550 3220
2020-07-09 21:30 2.28 350 15700 (2015) 19 (1954) 911 59 85 113 141 327 715 816 1550 3220
2020-07-09 20:30 2.26 341 15700 (2015) 19 (1954) 911 59 85 113 141 327 715 816 1550 3220
2020-07-09 19:30 2.25 336 15700 (2015) 19 (1954) 911 59 85 113 141 327 715 816 1550 3220
2020-07-09 18:30 2.24 332 15700 (2015) 19 (1954) 911 59 85 113 141 327 715 816 1550 3220
2020-07-09 17:30 2.24 332 15700 (2015) 19 (1954) 911 59 85 113 141 327 715 816 1550 3220
2020-07-09 16:30 2.25 336 15700 (2015) 19 (1954) 911 59 85 113 141 327 715 816 1550 3220
2020-07-09 15:30 2.25 336 15700 (2015) 19 (1954) 911 59 85 113 141 327 715 816 1550 3220
2020-07-09 14:30 2.25 336 15700 (2015) 19 (1954) 911 59 85 113 141 327 715 816 1550 3220
2020-07-09 13:30 2.26 341 15700 (2015) 19 (1954) 911 59 85 113 141 327 715 816 1550 3220
2020-07-09 12:30 2.26 341 15700 (2015) 19 (1954) 911 59 85 113 141 327 715 816 1550 3220
2020-07-09 11:30 2.25 336 15700 (2015) 19 (1954) 911 59 85 113 141 327 715 816 1550 3220
2020-07-09 10:30 2.26 341 15700 (2015) 19 (1954) 911 59 85 113 141 327 715 816 1550 3220
2020-07-09 09:30 2.25 336 15700 (2015) 19 (1954) 911 59 85 113 141 327 715 816 1550 3220
2020-07-09 08:30 2.26 341 15700 (2015) 19 (1954) 911 59 85 113 141 327 715 816 1550 3220
2020-07-09 07:30 2.25 336 15700 (2015) 19 (1954) 911 59 85 113 141 327 715 816 1550 3220
2020-07-09 06:30 2.25 336 15700 (2015) 19 (1954) 911 59 85 113 141 327 715 816 1550 3220
2020-07-09 05:30 2.26 341 15700 (2015) 19 (1954) 911 59 85 113 141 327 715 816 1550 3220
2020-07-09 04:30 2.25 336 15700 (2015) 19 (1954) 911 59 85 113 141 327 715 816 1550 3220
2020-07-09 03:30 2.26 341 15700 (2015) 19 (1954) 911 59 85 113 141 327 715 816 1550 3220
2020-07-09 02:30 2.27 345 15700 (2015) 19 (1954) 911 59 85 113 141 327 715 816 1550 3220
2020-07-09 01:30 2.26 341 15700 (2015) 19 (1954) 911 59 85 113 141 327 715 816 1550 3220
2020-07-09 00:30 2.27 345 15700 (2015) 19 (1954) 911 59 85 113 141 327 715 816 1550 3220
2020-07-08 23:30 2.27 345 9560 (2015) 17 (1954) 801 59 88 125 149 327 729 873 1850 3970
2020-07-08 22:30 2.28 350 9560 (2015) 17 (1954) 801 59 88 125 149 327 729 873 1850 3970
2020-07-08 21:30 2.28 350 9560 (2015) 17 (1954) 801 59 88 125 149 327 729 873 1850 3970
2020-07-08 20:30 2.28 350 9560 (2015) 17 (1954) 801 59 88 125 149 327 729 873 1850 3970
2020-07-08 19:30 2.30 358 9560 (2015) 17 (1954) 801 59 88 125 149 327 729 873 1850 3970
2020-07-08 18:30 2.30 358 9560 (2015) 17 (1954) 801 59 88 125 149 327 729 873 1850 3970
2020-07-08 17:30 2.30 358 9560 (2015) 17 (1954) 801 59 88 125 149 327 729 873 1850 3970
2020-07-08 16:30 2.31 363 9560 (2015) 17 (1954) 801 59 88 125 149 327 729 873 1850 3970
2020-07-08 15:30 2.31 363 9560 (2015) 17 (1954) 801 59 88 125 149 327 729 873 1850 3970
2020-07-08 14:30 2.32 367 9560 (2015) 17 (1954) 801 59 88 125 149 327 729 873 1850 3970
2020-07-08 13:30 2.32 367 9560 (2015) 17 (1954) 801 59 88 125 149 327 729 873 1850 3970
2020-07-08 12:30 2.33 372 9560 (2015) 17 (1954) 801 59 88 125 149 327 729 873 1850 3970
2020-07-08 11:30 2.33 372 9560 (2015) 17 (1954) 801 59 88 125 149 327 729 873 1850 3970
2020-07-08 10:30 2.34 376 9560 (2015) 17 (1954) 801 59 88 125 149 327 729 873 1850 3970
2020-07-08 09:30 2.35 381 9560 (2015) 17 (1954) 801 59 88 125 149 327 729 873 1850 3970
2020-07-08 08:30 2.35 381 9560 (2015) 17 (1954) 801 59 88 125 149 327 729 873 1850 3970
2020-07-08 07:30 2.34 376 9560 (2015) 17 (1954) 801 59 88 125 149 327 729 873 1850 3970
2020-07-08 06:30 2.35 381 9560 (2015) 17 (1954) 801 59 88 125 149 327 729 873 1850 3970
2020-07-08 05:30 2.36 386 9560 (2015) 17 (1954) 801 59 88 125 149 327 729 873 1850 3970
2020-07-08 04:30 2.35 381 9560 (2015) 17 (1954) 801 59 88 125 149 327 729 873 1850 3970
2020-07-08 03:30 2.35 381 9560 (2015) 17 (1954) 801 59 88 125 149 327 729 873 1850 3970
2020-07-08 02:30 2.37 390 9560 (2015) 17 (1954) 801 59 88 125 149 327 729 873 1850 3970
2020-07-08 01:30 2.37 390 9560 (2015) 17 (1954) 801 59 88 125 149 327 729 873 1850 3970
2020-07-08 00:30 2.37 390 9560 (2015) 17 (1954) 801 59 88 125 149 327 729 873 1850 3970
2020-07-07 23:30 2.38 395 9860 (1992) 11 (1954) 863 59 98 128 157 331 812 970 2200 4500
2020-07-07 22:30 2.38 395 9860 (1992) 11 (1954) 863 59 98 128 157 331 812 970 2200 4500
2020-07-07 21:30 2.40 404 9860 (1992) 11 (1954) 863 59 98 128 157 331 812 970 2200 4500
2020-07-07 20:30 2.40 404 9860 (1992) 11 (1954) 863 59 98 128 157 331 812 970 2200 4500
2020-07-07 19:30 2.41 409 9860 (1992) 11 (1954) 863 59 98 128 157 331 812 970 2200 4500
2020-07-07 18:30 2.40 404 9860 (1992) 11 (1954) 863 59 98 128 157 331 812 970 2200 4500
2020-07-07 17:30 2.42 414 9860 (1992) 11 (1954) 863 59 98 128 157 331 812 970 2200 4500
2020-07-07 16:30 2.42 414 9860 (1992) 11 (1954) 863 59 98 128 157 331 812 970 2200 4500
2020-07-07 15:30 2.43 419 9860 (1992) 11 (1954) 863 59 98 128 157 331 812 970 2200 4500
2020-07-07 14:30 2.43 419 9860 (1992) 11 (1954) 863 59 98 128 157 331 812 970 2200 4500
2020-07-07 13:30 2.44 423 9860 (1992) 11 (1954) 863 59 98 128 157 331 812 970 2200 4500
2020-07-07 12:30 2.45 428 9860 (1992) 11 (1954) 863 59 98 128 157 331 812 970 2200 4500
2020-07-07 11:30 2.46 433 9860 (1992) 11 (1954) 863 59 98 128 157 331 812 970 2200 4500
2020-07-07 10:30 2.46 433 9860 (1992) 11 (1954) 863 59 98 128 157 331 812 970 2200 4500
2020-07-07 09:30 2.47 438 9860 (1992) 11 (1954) 863 59 98 128 157 331 812 970 2200 4500
2020-07-07 08:30 2.47 438 9860 (1992) 11 (1954) 863 59 98 128 157 331 812 970 2200 4500
2020-07-07 07:30 2.48 442 9860 (1992) 11 (1954) 863 59 98 128 157 331 812 970 2200 4500
2020-07-07 06:30 2.48 442 9860 (1992) 11 (1954) 863 59 98 128 157 331 812 970 2200 4500
2020-07-07 05:30 2.50 452 9860 (1992) 11 (1954) 863 59 98 128 157 331 812 970 2200 4500
2020-07-07 04:30 2.50 452 9860 (1992) 11 (1954) 863 59 98 128 157 331 812 970 2200 4500
2020-07-07 03:30 2.53 466 9860 (1992) 11 (1954) 863 59 98 128 157 331 812 970 2200 4500
2020-07-07 02:30 2.53 466 9860 (1992) 11 (1954) 863 59 98 128 157 331 812 970 2200 4500
2020-07-07 01:30 2.54 471 9860 (1992) 11 (1954) 863 59 98 128 157 331 812 970 2200 4500
2020-07-07 00:30 2.55 475 9860 (1992) 11 (1954) 863 59 98 128 157 331 812 970 2200 4500
2020-07-06 23:30 2.56 480 14800 (1983) 9 (1954) 1200 63 109 133 169 323 791 883 2550 8960
2020-07-06 22:30 2.57 485 14800 (1983) 9 (1954) 1200 63 109 133 169 323 791 883 2550 8960
2020-07-06 21:30 2.58 490 14800 (1983) 9 (1954) 1200 63 109 133 169 323 791 883 2550 8960
2020-07-06 20:30 2.59 495 14800 (1983) 9 (1954) 1200 63 109 133 169 323 791 883 2550 8960
2020-07-06 19:30 2.60 500 14800 (1983) 9 (1954) 1200 63 109 133 169 323 791 883 2550 8960
2020-07-06 18:30 2.62 509 14800 (1983) 9 (1954) 1200 63 109 133 169 323 791 883 2550 8960
2020-07-06 17:30 2.63 514 14800 (1983) 9 (1954) 1200 63 109 133 169 323 791 883 2550 8960
2020-07-06 16:30 2.64 519 14800 (1983) 9 (1954) 1200 63 109 133 169 323 791 883 2550 8960
2020-07-06 15:30 2.65 524 14800 (1983) 9 (1954) 1200 63 109 133 169 323 791 883 2550 8960
2020-07-06 14:30 2.64 519 14800 (1983) 9 (1954) 1200 63 109 133 169 323 791 883 2550 8960
2020-07-06 13:30 2.68 539 14800 (1983) 9 (1954) 1200 63 109 133 169 323 791 883 2550 8960
2020-07-06 12:30 2.68 539 14800 (1983) 9 (1954) 1200 63 109 133 169 323 791 883 2550 8960
2020-07-06 11:30 2.71 555 14800 (1983) 9 (1954) 1200 63 109 133 169 323 791 883 2550 8960
2020-07-06 10:30 2.69 545 14800 (1983) 9 (1954) 1200 63 109 133 169 323 791 883 2550 8960
2020-07-06 09:30 2.71 555 14800 (1983) 9 (1954) 1200 63 109 133 169 323 791 883 2550 8960
2020-07-06 08:30 2.71 555 14800 (1983) 9 (1954) 1200 63 109 133 169 323 791 883 2550 8960
2020-07-06 07:30 2.74 570 14800 (1983) 9 (1954) 1200 63 109 133 169 323 791 883 2550 8960
2020-07-06 06:30 2.74 570 14800 (1983) 9 (1954) 1200 63 109 133 169 323 791 883 2550 8960
2020-07-06 05:30 2.77 586 14800 (1983) 9 (1954) 1200 63 109 133 169 323 791 883 2550 8960
2020-07-06 04:30 2.79 596 14800 (1983) 9 (1954) 1200 63 109 133 169 323 791 883 2550 8960
2020-07-06 03:30 2.81 607 14800 (1983) 9 (1954) 1200 63 109 133 169 323 791 883 2550 8960
2020-07-06 02:30 2.85 629 14800 (1983) 9 (1954) 1200 63 109 133 169 323 791 883 2550 8960
2020-07-06 01:30 2.85 629 14800 (1983) 9 (1954) 1200 63 109 133 169 323 791 883 2550 8960
2020-07-06 00:30 2.89 651 14800 (1983) 9 (1954) 1200 63 109 133 169 323 791 883 2550 8960

A total of 188 rows are displayed for years 1924 through 2019.